Time;durP1;ratioP1;P1;durP2;ratioP2;P2;SDS_P1;SDS_P2;PMS_P1;PMS_P2;Temp;Humidity;BMP_temperature;BMP_pressure;BME280_temperature;BME280_humidity;BME280_pressure;Samples;Min_cycle;Max_cycle;Signal;HPM_P1;HPM_P2
2022/01/20 00:01:07;;;;;;;6.22;5.60;;;6.00;99.90;;;;;;4954570;28;20227;-70
2022/01/20 00:03:38;;;;;;;6.22;5.72;;;6.00;99.90;;;;;;4950178;29;20254;-70
2022/01/20 00:07:01;;;;;;;5.63;5.22;;;6.00;99.90;;;;;;4942793;29;20242;-70
2022/01/20 00:09:32;;;;;;;5.47;4.90;;;6.00;99.90;;;;;;4949986;29;20234;-71
2022/01/20 00:23:31;;;;;;;5.60;5.20;;;5.70;99.90;;;;;;4913558;29;20260;-69
2022/01/20 00:26:04;;;;;;;6.90;6.20;;;5.60;99.90;;;;;;4949872;28;20261;-68
2022/01/20 00:28:41;;;;;;;5.53;5.13;;;5.40;99.90;;;;;;4953919;29;20239;-66
2022/01/20 00:31:28;;;;;;;6.15;5.75;;;5.40;99.90;;;;;;4954116;28;20286;-69
2022/01/20 00:34:09;;;;;;;5.50;5.10;;;5.20;99.90;;;;;;4945928;29;20286;-69
2022/01/20 00:39:22;;;;;;;6.20;5.65;;;5.30;99.90;;;;;;4946838;29;20253;-70
2022/01/20 00:41:52;;;;;;;6.00;5.50;;;5.40;99.90;;;;;;4953967;29;20254;-70
2022/01/20 00:44:20;;;;;;;7.10;6.50;;;5.30;99.90;;;;;;4953965;29;20226;-70
2022/01/20 00:46:47;;;;;;;6.30;5.80;;;5.20;99.90;;;;;;4950686;28;20199;-68
2022/01/20 00:49:16;;;;;;;6.22;5.72;;;5.40;99.90;;;;;;4953843;29;20215;-69
2022/01/20 00:51:44;;;;;;;6.53;5.93;;;5.40;99.90;;;;;;4953932;28;20235;-70
2022/01/20 00:54:18;;;;;;;6.10;5.50;;;5.60;99.90;;;;;;4953787;29;20203;-71
2022/01/20 00:56:47;;;;;;;6.82;6.22;;;5.70;99.90;;;;;;4953804;29;20278;-70
2022/01/20 00:59:16;;;;;;;6.22;5.63;;;5.50;99.90;;;;;;4953749;29;20283;-71
2022/01/20 01:01:45;;;;;;;5.57;5.05;;;5.60;99.90;;;;;;4953683;29;20254;-69
2022/01/20 01:04:13;;;;;;;4.78;4.38;;;5.70;99.90;;;;;;4950222;29;20719;-69
2022/01/20 01:06:57;;;;;;;6.40;5.82;;;5.60;99.90;;;;;;4944833;29;20199;-70
2022/01/20 01:09:25;;;;;;;5.45;5.05;;;5.60;99.90;;;;;;4952115;29;20226;-71
2022/01/20 01:11:58;;;;;;;6.10;5.55;;;5.50;99.90;;;;;;4953463;29;20246;-69
2022/01/20 01:14:29;;;;;;;5.97;4.78;;;5.60;99.90;;;;;;4953464;28;20242;-70
2022/01/20 01:20:08;;;;;;;5.78;4.90;;;5.60;99.90;;;;;;4953319;29;20294;-70
2022/01/20 01:22:36;;;;;;;5.35;4.85;;;5.70;99.90;;;;;;4953215;29;20262;-70
2022/01/20 01:25:05;;;;;;;5.40;4.70;;;5.80;99.90;;;;;;4953134;29;20266;-70
2022/01/20 01:27:38;;;;;;;5.15;4.65;;;5.70;99.90;;;;;;4952666;28;20254;-70
2022/01/20 01:30:19;;;;;;;5.30;4.40;;;5.80;99.90;;;;;;4953409;29;20270;-70
2022/01/20 01:32:51;;;;;;;4.78;4.38;;;5.80;99.90;;;;;;4950300;28;20218;-70
2022/01/20 01:35:22;;;;;;;4.85;4.45;;;5.80;99.90;;;;;;4947519;29;20199;-70
2022/01/20 01:40:50;;;;;;;5.75;5.18;;;5.90;99.90;;;;;;4893042;29;20276;-68
2022/01/20 01:43:25;;;;;;;4.95;4.45;;;5.80;99.90;;;;;;4906035;29;20643;-70
2022/01/20 01:45:55;;;;;;;5.07;4.57;;;5.70;99.90;;;;;;4922466;29;20281;-69
2022/01/20 01:48:23;;;;;;;5.65;5.15;;;5.80;99.90;;;;;;4952927;29;20203;-70
2022/01/20 01:50:51;;;;;;;5.45;4.95;;;5.80;99.90;;;;;;4953003;29;20261;-70
2022/01/20 01:53:19;;;;;;;5.97;5.10;;;5.80;99.90;;;;;;4949171;28;20203;-70
2022/01/20 01:55:47;;;;;;;4.60;4.03;;;5.70;99.90;;;;;;4953133;29;20207;-70
2022/01/20 01:58:15;;;;;;;5.32;4.82;;;5.70;99.90;;;;;;4952772;29;20211;-70
2022/01/20 02:00:43;;;;;;;5.25;4.03;;;5.80;99.90;;;;;;4952762;29;20314;-70
2022/01/20 02:03:14;;;;;;;4.63;4.13;;;5.90;99.90;;;;;;4952827;29;20207;-70
2022/01/20 02:05:57;;;;;;;4.50;4.10;;;5.70;99.90;;;;;;4952873;28;20688;-70
2022/01/20 02:08:37;;;;;;;4.18;3.78;;;5.80;99.90;;;;;;4948442;29;20286;-70
2022/01/20 02:19:27;;;;;;;5.35;4.80;;;5.50;99.90;;;;;;4940062;28;20318;-70
2022/01/20 02:22:02;;;;;;;5.72;4.72;;;5.60;99.90;;;;;;4941670;29;20680;-68
2022/01/20 02:24:30;;;;;;;5.68;4.57;;;5.70;99.90;;;;;;4952745;28;20219;-70
2022/01/20 02:26:59;;;;;;;8.65;5.15;;;5.70;99.90;;;;;;4952905;29;20203;-70
2022/01/20 02:29:27;;;;;;;6.45;4.88;;;5.70;99.90;;;;;;4952647;29;20258;-69
2022/01/20 02:31:56;;;;;;;5.45;4.95;;;5.60;99.90;;;;;;4952764;28;20204;-70
2022/01/20 02:34:28;;;;;;;7.57;5.57;;;5.70;99.90;;;;;;4952859;28;20260;-70
2022/01/20 02:37:00;;;;;;;8.32;5.15;;;5.70;99.90;;;;;;4951014;29;20206;-70
2022/01/20 02:39:47;;;;;;;8.05;5.43;;;5.80;99.90;;;;;;4943197;29;20239;-71
2022/01/20 02:45:03;;;;;;;6.72;5.40;;;6.00;99.90;;;;;;4956091;29;20306;-70
2022/01/20 02:47:34;;;;;;;7.25;5.40;;;5.90;99.90;;;;;;4956023;29;20255;-70
2022/01/20 02:50:02;;;;;;;8.68;4.95;;;5.70;99.90;;;;;;4954639;29;20258;-69
2022/01/20 02:52:31;;;;;;;6.97;5.13;;;5.70;99.90;;;;;;4955882;28;20565;-70
2022/01/20 02:54:59;;;;;;;8.18;5.20;;;5.90;99.90;;;;;;4955921;29;20254;-70
2022/01/20 02:57:27;;;;;;;7.50;5.35;;;5.90;99.90;;;;;;4954041;29;20295;-70
2022/01/20 02:59:55;;;;;;;8.25;5.40;;;5.90;99.90;;;;;;4953631;29;20278;-70
2022/01/20 03:02:23;;;;;;;7.97;5.60;;;5.80;99.90;;;;;;4955708;29;20395;-70
2022/01/20 03:04:51;;;;;;;12.25;5.68;;;5.80;99.90;;;;;;4955838;29;20262;-70
2022/01/20 03:07:19;;;;;;;9.13;4.80;;;5.80;99.90;;;;;;4955075;28;20207;-69
2022/01/20 03:09:48;;;;;;;12.07;5.18;;;5.90;99.90;;;;;;4947016;28;20656;-70
2022/01/20 03:12:16;;;;;;;10.88;5.78;;;5.90;99.90;;;;;;4952346;29;20254;-70
2022/01/20 03:14:44;;;;;;;9.07;5.88;;;5.80;99.90;;;;;;4955560;29;20336;-70
2022/01/20 03:17:14;;;;;;;11.40;5.45;;;5.70;99.90;;;;;;4955496;28;20239;-70
2022/01/20 03:19:42;;;;;;;15.15;5.30;;;5.70;99.90;;;;;;4955370;29;20231;-70
2022/01/20 03:22:10;;;;;;;12.40;6.60;;;5.70;99.90;;;;;;4953991;29;20559;-70
2022/01/20 03:24:37;;;;;;;14.57;5.85;;;5.60;99.90;;;;;;4955273;29;20254;-70
2022/01/20 03:27:07;;;;;;;13.63;6.15;;;5.70;99.90;;;;;;4955290;28;20231;-70
2022/01/20 03:29:35;;;;;;;19.67;6.15;;;5.50;99.90;;;;;;4955152;28;20255;-70
2022/01/20 03:32:04;;;;;;;18.85;7.53;;;5.30;99.90;;;;;;4955175;28;20298;-69
2022/01/20 03:34:32;;;;;;;23.20;8.02;;;5.30;99.90;;;;;;4955724;28;20234;-70
2022/01/20 03:37:03;;;;;;;12.23;6.25;;;5.20;99.90;;;;;;4953923;29;20219;-70
2022/01/20 03:39:32;;;;;;;13.10;6.75;;;5.20;99.90;;;;;;4947797;29;20282;-70
2022/01/20 03:42:00;;;;;;;17.05;7.80;;;5.40;99.90;;;;;;4954804;29;20258;-68
2022/01/20 03:44:29;;;;;;;13.77;7.03;;;5.60;99.90;;;;;;4956065;29;20242;-70
2022/01/20 03:47:00;;;;;;;17.33;6.05;;;5.70;99.90;;;;;;4955963;29;20219;-70
2022/01/20 03:49:36;;;;;;;12.68;5.95;;;5.80;99.90;;;;;;4955217;28;20289;-70
2022/01/20 03:52:05;;;;;;;15.27;6.28;;;5.90;99.90;;;;;;4955131;29;20743;-70
2022/01/20 03:54:34;;;;;;;14.07;5.88;;;5.90;99.90;;;;;;4955980;29;20226;-70
2022/01/20 03:57:03;;;;;;;16.40;6.40;;;6.00;99.90;;;;;;4959320;29;20219;-70
2022/01/20 03:59:32;;;;;;;18.98;6.30;;;6.00;99.90;;;;;;4954837;29;20266;-71
2022/01/20 04:02:00;;;;;;;12.07;5.18;;;6.10;99.90;;;;;;4954836;29;20207;-70
2022/01/20 04:04:28;;;;;;;14.88;6.65;;;6.10;99.90;;;;;;4952648;29;20668;-70
2022/01/20 04:06:57;;;;;;;13.98;6.30;;;6.10;99.90;;;;;;4953920;29;20332;-70
2022/01/20 04:09:25;;;;;;;16.35;5.95;;;6.10;99.90;;;;;;4939033;29;20603;-70
2022/01/20 04:11:53;;;;;;;11.88;5.05;;;6.20;99.90;;;;;;4952031;29;20242;-71
2022/01/20 04:14:23;;;;;;;12.70;5.90;;;6.20;99.90;;;;;;4955507;29;20239;-70
2022/01/20 04:17:03;;;;;;;11.70;5.78;;;6.20;99.90;;;;;;4955911;28;20215;-69
2022/01/20 04:19:32;;;;;;;9.93;6.00;;;6.20;99.90;;;;;;4954523;29;20734;-70
2022/01/20 04:22:01;;;;;;;13.93;6.82;;;6.10;99.90;;;;;;4954282;29;20253;-71
2022/01/20 04:24:29;;;;;;;11.18;6.30;;;6.10;99.90;;;;;;4954422;28;20274;-70
2022/01/20 04:26:58;;;;;;;11.10;5.38;;;6.00;99.90;;;;;;4954280;28;20219;-70
2022/01/20 04:29:26;;;;;;;14.13;5.60;;;5.90;99.90;;;;;;4953916;28;20259;-70
2022/01/20 04:31:55;;;;;;;12.88;5.75;;;5.90;99.90;;;;;;4970221;23;20799;-64
2022/01/20 04:34:23;;;;;;;15.68;6.55;;;5.90;99.90;;;;;;4946052;29;20210;-63
2022/01/20 04:36:53;;;;;;;18.08;7.40;;;5.80;99.90;;;;;;4952685;29;20302;-63
2022/01/20 04:39:25;;;;;;;16.70;6.20;;;5.70;99.90;;;;;;4945827;29;20257;-63
2022/01/20 04:41:54;;;;;;;13.50;6.88;;;5.70;99.90;;;;;;4942008;29;20235;-63
2022/01/20 04:44:34;;;;;;;19.20;8.13;;;5.60;99.90;;;;;;4953578;29;20249;-63
2022/01/20 04:47:15;;;;;;;23.80;8.48;;;5.50;99.90;;;;;;4953787;29;20323;-63
2022/01/20 04:58:00;;;;;;;20.90;6.40;;;5.60;99.90;;;;;;4953592;29;20266;-64
2022/01/20 05:00:28;;;;;;;13.38;7.22;;;5.60;99.90;;;;;;4953058;28;21292;-63
2022/01/20 05:02:58;;;;;;;17.10;6.38;;;5.60;99.90;;;;;;4952795;29;20234;-64
2022/01/20 05:05:31;;;;;;;19.77;7.20;;;5.50;99.90;;;;;;4953502;29;20207;-64
2022/01/20 05:07:59;;;;;;;19.73;8.30;;;5.60;99.90;;;;;;4943170;29;20213;-63
2022/01/20 05:10:29;;;;;;;21.63;8.10;;;5.60;99.90;;;;;;4932446;29;20231;-63
2022/01/20 05:13:08;;;;;;;26.13;8.20;;;5.40;99.90;;;;;;4949351;29;20247;-64
2022/01/20 05:15:36;;;;;;;15.05;7.75;;;5.10;99.90;;;;;;4953463;29;20203;-63
2022/01/20 05:18:07;;;;;;;19.48;8.68;;;4.90;99.90;;;;;;4953390;29;20229;-63
2022/01/20 05:20:35;;;;;;;15.77;7.90;;;4.50;99.90;;;;;;4936860;29;20287;-64
2022/01/20 05:23:03;;;;;;;21.13;8.98;;;4.40;99.90;;;;;;4952832;29;20693;-64
2022/01/20 05:25:31;;;;;;;18.65;8.45;;;4.20;99.90;;;;;;4953167;29;20253;-64
2022/01/20 05:27:59;;;;;;;21.05;8.40;;;4.30;99.90;;;;;;4953072;29;20211;-63
2022/01/20 05:30:27;;;;;;;21.42;9.10;;;4.40;99.90;;;;;;4952855;29;20286;-64
2022/01/20 05:32:55;;;;;;;27.17;9.55;;;4.40;99.90;;;;;;4945478;29;20244;-64
2022/01/20 05:35:24;;;;;;;25.02;7.88;;;4.50;99.90;;;;;;4952484;29;20238;-64
2022/01/20 05:37:52;;;;;;;22.75;8.93;;;4.60;99.90;;;;;;4935844;29;20282;-62
2022/01/20 05:40:20;;;;;;;23.42;8.10;;;4.60;99.90;;;;;;4936577;29;20231;-62
2022/01/20 05:42:48;;;;;;;21.35;8.00;;;4.50;99.90;;;;;;4941466;29;20999;-63
2022/01/20 05:45:16;;;;;;;22.50;7.85;;;4.30;99.90;;;;;;4937587;29;20231;-62
2022/01/20 05:47:46;;;;;;;19.42;8.25;;;4.30;99.90;;;;;;4946244;29;20263;-63
2022/01/20 05:50:16;;;;;;;18.02;7.13;;;4.20;99.90;;;;;;4940195;29;20203;-63
2022/01/20 05:52:46;;;;;;;14.77;6.40;;;4.10;99.90;;;;;;4941232;29;20228;-62
2022/01/20 05:55:16;;;;;;;14.75;5.60;;;4.00;99.90;;;;;;4943617;29;20298;-63
2022/01/20 05:57:45;;;;;;;10.90;5.32;;;3.90;99.90;;;;;;4947320;29;20714;-63
2022/01/20 06:00:20;;;;;;;16.85;5.47;;;3.90;99.90;;;;;;4942839;29;20747;-63
2022/01/20 06:05:33;;;;;;;16.00;5.38;;;3.80;99.90;;;;;;4945706;29;20281;-63
2022/01/20 06:08:03;;;;;;;22.73;6.43;;;3.70;99.90;;;;;;4927034;29;20319;-62
2022/01/20 06:10:32;;;;;;;17.92;6.38;;;3.70;99.90;;;;;;4919532;29;20209;-62
2022/01/20 06:13:00;;;;;;;18.60;6.72;;;3.70;99.90;;;;;;4924571;29;20317;-63
2022/01/20 06:15:28;;;;;;;17.30;6.25;;;3.60;99.90;;;;;;4923199;29;20335;-63
2022/01/20 06:17:56;;;;;;;13.60;5.68;;;3.60;99.90;;;;;;4927850;29;20204;-63
2022/01/20 06:20:25;;;;;;;15.25;6.85;;;3.60;99.90;;;;;;4931561;29;20214;-62
2022/01/20 06:22:53;;;;;;;13.05;5.13;;;3.60;99.90;;;;;;4936442;29;20232;-63
2022/01/20 06:25:22;;;;;;;16.50;5.32;;;3.60;99.90;;;;;;4933057;29;20302;-63
2022/01/20 06:27:50;;;;;;;20.08;5.25;;;3.60;99.90;;;;;;4946776;29;20323;-63
2022/01/20 06:30:19;;;;;;;15.73;5.03;;;3.60;99.90;;;;;;4947000;29;20728;-64
2022/01/20 06:32:46;;;;;;;19.05;6.05;;;3.70;99.90;;;;;;4949728;29;20310;-63
2022/01/20 06:35:14;;;;;;;17.55;7.00;;;3.70;99.90;;;;;;4937120;29;20314;-63
2022/01/20 06:37:42;;;;;;;20.75;6.25;;;3.70;99.90;;;;;;4939196;29;20210;-63
2022/01/20 06:40:11;;;;;;;13.93;4.97;;;3.70;99.90;;;;;;4933164;29;20274;-64
2022/01/20 06:42:41;;;;;;;20.52;5.43;;;3.80;99.90;;;;;;4944238;29;20728;-63
2022/01/20 06:45:11;;;;;;;17.95;4.78;;;3.70;99.90;;;;;;4947425;29;20233;-64
2022/01/20 06:47:39;;;;;;;19.92;5.05;;;3.60;99.90;;;;;;4950253;29;20269;-62
2022/01/20 06:50:10;;;;;;;19.33;5.03;;;3.60;99.90;;;;;;4928927;29;20251;-63
2022/01/20 06:52:39;;;;;;;14.48;4.45;;;3.60;99.90;;;;;;4939784;29;20311;-63
2022/01/20 06:55:10;;;;;;;24.23;5.90;;;3.60;99.90;;;;;;4940563;29;20294;-63
2022/01/20 06:57:39;;;;;;;13.50;4.40;;;3.60;99.90;;;;;;4944072;29;20262;-63
2022/01/20 07:00:10;;;;;;;17.10;5.75;;;3.60;99.90;;;;;;4938481;29;20206;-63
2022/01/20 07:02:38;;;;;;;15.40;5.50;;;3.50;99.90;;;;;;4942828;29;20314;-63
2022/01/20 07:05:08;;;;;;;12.18;4.30;;;3.50;99.90;;;;;;4943581;29;20195;-64
2022/01/20 07:07:36;;;;;;;13.30;4.70;;;3.50;99.90;;;;;;4940981;29;20921;-63
2022/01/20 07:10:05;;;;;;;14.88;5.68;;;3.50;99.90;;;;;;4936564;29;20873;-64
2022/01/20 07:12:32;;;;;;;19.50;5.20;;;3.50;99.90;;;;;;4945303;29;20854;-64
2022/01/20 07:15:00;;;;;;;13.23;4.90;;;3.40;99.90;;;;;;4944004;29;20239;-63
2022/01/20 07:17:30;;;;;;;15.95;5.75;;;3.40;99.90;;;;;;4945969;29;20203;-64
2022/01/20 07:19:57;;;;;;;14.98;4.95;;;3.40;99.90;;;;;;4947975;29;20894;-63
2022/01/20 07:22:25;;;;;;;13.52;3.95;;;3.40;99.90;;;;;;4937383;29;20318;-63
2022/01/20 07:24:54;;;;;;;11.50;3.90;;;3.40;99.90;;;;;;4940574;29;20313;-63
2022/01/20 07:27:22;;;;;;;16.35;5.20;;;3.30;99.90;;;;;;4952969;29;20254;-62
2022/01/20 07:29:50;;;;;;;14.88;5.35;;;3.40;99.90;;;;;;4954097;29;20306;-61
2022/01/20 07:32:18;;;;;;;9.13;3.50;;;3.40;99.90;;;;;;4954331;29;20731;-62
2022/01/20 07:34:47;;;;;;;13.98;4.63;;;3.50;99.90;;;;;;4954559;29;20235;-61
2022/01/20 07:37:15;;;;;;;10.50;3.75;;;3.50;99.90;;;;;;4950382;29;20283;-61
2022/01/20 07:39:43;;;;;;;7.03;3.53;;;3.50;99.90;;;;;;4931501;29;20235;-61
2022/01/20 07:42:11;;;;;;;10.43;3.33;;;3.60;99.90;;;;;;4942642;29;20225;-62
2022/01/20 07:44:38;;;;;;;8.68;3.45;;;3.60;99.90;;;;;;4942540;29;20298;-62
2022/01/20 07:47:06;;;;;;;4.65;2.80;;;3.70;99.90;;;;;;4954961;29;20645;-62
2022/01/20 07:49:34;;;;;;;5.20;2.22;;;3.70;99.90;;;;;;4954422;29;20744;-61
2022/01/20 07:52:05;;;;;;;6.05;1.83;;;3.70;99.90;;;;;;4954425;29;20235;-62
2022/01/20 07:54:33;;;;;;;5.40;2.30;;;3.80;99.90;;;;;;4954716;29;20242;-61
2022/01/20 07:57:01;;;;;;;6.00;2.08;;;3.80;99.90;;;;;;4954438;29;20295;-61
2022/01/20 07:59:28;;;;;;;4.53;2.55;;;3.90;99.90;;;;;;4954421;29;20203;-62
2022/01/20 08:01:57;;;;;;;11.23;2.35;;;3.80;99.90;;;;;;4953875;29;20326;-61
2022/01/20 08:04:26;;;;;;;10.15;2.53;;;3.90;99.90;;;;;;4954336;29;20241;-61
2022/01/20 08:06:54;;;;;;;10.05;2.80;;;3.90;99.90;;;;;;4941692;29;20574;-62
2022/01/20 08:09:23;;;;;;;8.65;3.10;;;3.80;99.90;;;;;;4928358;29;20205;-62
2022/01/20 08:12:11;;;;;;;7.40;3.38;;;3.90;99.90;;;;;;4941069;29;20235;-62
2022/01/20 08:14:40;;;;;;;12.88;4.45;;;3.80;99.90;;;;;;4954282;29;20212;-61
2022/01/20 08:17:08;;;;;;;8.50;3.53;;;3.90;99.90;;;;;;4936985;29;20211;-62
2022/01/20 08:19:35;;;;;;;7.35;2.85;;;4.00;99.90;;;;;;4954055;29;20245;-64
2022/01/20 08:22:04;;;;;;;10.52;3.40;;;4.00;99.90;;;;;;4953677;29;20223;-61
2022/01/20 08:24:53;;;;;;;15.35;4.97;;;4.00;99.90;;;;;;4954122;29;20223;-62
2022/01/20 08:27:22;;;;;;;14.48;4.57;;;4.00;99.90;;;;;;4953569;29;20748;-61
2022/01/20 08:29:49;;;;;;;9.27;3.63;;;4.10;99.90;;;;;;4953820;29;20289;-63
2022/01/20 08:32:17;;;;;;;13.20;3.40;;;4.10;99.90;;;;;;4953164;29;20267;-62
2022/01/20 08:34:45;;;;;;;10.68;4.28;;;4.30;99.90;;;;;;4953837;29;20212;-62
2022/01/20 08:37:13;;;;;;;6.55;2.63;;;4.30;99.90;;;;;;4941389;29;20218;-61
2022/01/20 08:39:42;;;;;;;12.82;4.03;;;4.30;99.90;;;;;;4940031;29;20286;-62
2022/01/20 08:42:12;;;;;;;15.18;3.65;;;4.40;99.90;;;;;;4925792;29;20298;-62
2022/01/20 08:44:41;;;;;;;10.90;3.28;;;4.40;99.90;;;;;;4954106;29;20234;-62
2022/01/20 08:47:16;;;;;;;7.30;3.55;;;4.40;99.90;;;;;;4953503;29;20639;-62
2022/01/20 08:49:44;;;;;;;8.10;3.45;;;4.40;99.90;;;;;;4953899;29;20628;-62
2022/01/20 08:52:12;;;;;;;8.07;3.10;;;4.40;99.90;;;;;;4953352;29;20263;-62
2022/01/20 08:54:40;;;;;;;9.43;2.83;;;4.30;99.90;;;;;;4953699;29;20211;-62
2022/01/20 08:57:08;;;;;;;7.13;2.95;;;4.20;99.90;;;;;;4953569;29;20236;-62
2022/01/20 08:59:40;;;;;;;5.63;2.60;;;4.30;99.90;;;;;;4953367;29;20637;-62
2022/01/20 09:02:08;;;;;;;8.07;2.60;;;4.30;99.90;;;;;;4953112;29;20274;-61
2022/01/20 09:04:37;;;;;;;6.85;2.00;;;4.30;99.90;;;;;;4953529;29;20215;-62
2022/01/20 09:07:05;;;;;;;10.55;3.35;;;4.40;99.90;;;;;;4953577;29;20290;-61
2022/01/20 09:09:39;;;;;;;10.68;2.78;;;4.40;99.90;;;;;;4943523;29;20254;-62
2022/01/20 09:12:17;;;;;;;7.13;2.17;;;4.70;99.90;;;;;;4944267;29;20316;-62
2022/01/20 09:17:32;;;;;;;9.25;3.03;;;5.20;99.90;;;;;;4953777;29;20321;-62
2022/01/20 09:20:01;;;;;;;8.48;3.10;;;5.60;99.90;;;;;;4953491;29;20234;-62
2022/01/20 09:22:30;;;;;;;6.35;2.65;;;5.70;99.90;;;;;;4952694;29;20223;-62
2022/01/20 09:24:58;;;;;;;7.70;2.55;;;5.70;99.90;;;;;;4953155;29;20589;-62
2022/01/20 09:27:26;;;;;;;12.27;2.50;;;5.80;99.90;;;;;;4953037;29;20245;-61
2022/01/20 09:29:55;;;;;;;7.80;2.65;;;5.90;99.90;;;;;;4952993;29;20262;-62
2022/01/20 09:32:25;;;;;;;8.27;2.40;;;6.20;99.90;;;;;;4952787;29;20761;-61
2022/01/20 09:34:56;;;;;;;12.57;2.00;;;6.60;99.90;;;;;;4952718;29;20203;-61
2022/01/20 09:37:24;;;;;;;7.10;2.05;;;7.10;99.90;;;;;;4953137;29;20238;-61
2022/01/20 09:39:51;;;;;;;6.20;2.42;;;7.40;99.90;;;;;;4945617;29;20227;-61
2022/01/20 09:42:20;;;;;;;6.28;1.75;;;7.80;99.90;;;;;;4933843;29;20624;-61
2022/01/20 09:44:48;;;;;;;5.88;1.67;;;8.00;99.90;;;;;;4952931;29;20302;-61
2022/01/20 09:47:18;;;;;;;7.28;2.80;;;8.10;99.90;;;;;;4953361;28;20310;-61
2022/01/20 09:49:46;;;;;;;9.27;2.33;;;8.20;99.90;;;;;;4957055;29;20223;-61
2022/01/20 09:52:14;;;;;;;7.28;2.67;;;8.00;99.90;;;;;;4956448;29;20381;-61
2022/01/20 09:54:42;;;;;;;6.10;2.65;;;7.70;99.90;;;;;;4956914;29;20299;-61
2022/01/20 09:57:10;;;;;;;8.57;2.40;;;7.40;99.90;;;;;;4956740;29;20298;-61
2022/01/20 09:59:38;;;;;;;10.07;2.80;;;7.60;99.90;;;;;;4956710;29;20235;-61
2022/01/20 10:02:11;;;;;;;8.13;2.50;;;7.80;99.90;;;;;;4956193;29;20266;-61
2022/01/20 10:04:41;;;;;;;5.43;1.70;;;7.90;99.90;;;;;;4956942;29;20209;-61
2022/01/20 10:07:12;;;;;;;6.97;2.15;;;8.10;99.90;;;;;;4956497;29;20213;-62
2022/01/20 10:09:42;;;;;;;7.30;2.15;;;8.40;99.90;;;;;;4947010;29;20258;-61
2022/01/20 10:12:12;;;;;;;10.88;3.05;;;8.80;99.90;;;;;;4949170;29;20224;-61
2022/01/20 10:14:41;;;;;;;6.13;2.75;;;8.90;99.90;;;;;;4955820;29;20242;-61
2022/01/20 10:17:16;;;;;;;5.40;1.80;;;8.80;99.90;;;;;;4956583;29;20696;-61
2022/01/20 10:19:46;;;;;;;10.75;2.40;;;8.60;99.90;;;;;;4956472;29;20302;-61
2022/01/20 10:22:16;;;;;;;8.10;1.80;;;8.20;99.90;;;;;;4955950;29;20309;-61
2022/01/20 10:24:58;;;;;;;5.45;1.83;;;8.00;99.90;;;;;;4956857;29;20203;-61
2022/01/20 10:27:26;;;;;;;7.93;2.13;;;7.60;99.90;;;;;;4956357;29;20286;-61
2022/01/20 10:29:58;;;;;;;4.85;1.60;;;7.40;99.90;;;;;;4956325;29;20231;-61
2022/01/20 10:32:28;;;;;;;6.80;3.20;;;7.20;99.90;;;;;;4973978;23;20242;-67
2022/01/20 10:35:05;;;;;;;11.80;3.15;;;7.00;99.90;;;;;;4930900;29;20736;-66
2022/01/20 10:37:33;;;;;;;9.70;3.35;;;6.70;99.90;;;;;;4956424;29;20203;-67
2022/01/20 10:40:08;;;;;;;12.27;2.72;;;6.60;99.90;;;;;;4936180;29;20207;-67
2022/01/20 10:42:37;;;;;;;9.05;2.20;;;6.50;99.90;;;;;;4949571;29;20646;-68
2022/01/20 10:45:07;;;;;;;14.32;2.78;;;6.50;99.90;;;;;;4943777;29;20230;-67
2022/01/20 10:47:39;;;;;;;10.55;1.98;;;6.20;99.90;;;;;;4944233;29;20258;-67
2022/01/20 10:50:14;;;;;;;4.50;2.42;;;6.00;99.90;;;;;;4945182;29;20302;-67
2022/01/20 10:52:44;;;;;;;6.45;2.05;;;5.90;99.90;;;;;;4955709;29;20282;-67
2022/01/20 10:55:21;;;;;;;5.88;2.70;;;5.90;99.90;;;;;;4956425;29;20657;-68
2022/01/20 10:57:49;;;;;;;6.75;2.42;;;5.80;99.90;;;;;;4956340;29;20707;-68
2022/01/20 11:00:19;;;;;;;12.68;2.95;;;5.80;99.90;;;;;;4955073;28;20306;-67
2022/01/20 11:02:52;;;;;;;8.35;3.03;;;5.80;99.90;;;;;;4955911;29;20235;-67
2022/01/20 11:05:23;;;;;;;6.10;2.65;;;5.80;99.90;;;;;;4955970;29;20253;-67
2022/01/20 11:07:53;;;;;;;8.73;2.50;;;6.10;99.90;;;;;;4956419;29;20235;-67
2022/01/20 11:10:24;;;;;;;6.22;2.63;;;6.40;99.90;;;;;;4947892;29;20226;-67
2022/01/20 11:12:52;;;;;;;7.68;2.67;;;6.70;99.90;;;;;;4939810;29;20310;-68
2022/01/20 11:15:23;;;;;;;12.45;2.92;;;6.80;99.90;;;;;;4955421;29;20243;-67
2022/01/20 11:17:53;;;;;;;6.50;2.35;;;6.90;99.90;;;;;;4955559;29;20210;-67
2022/01/20 11:20:26;;;;;;;12.90;2.95;;;7.30;99.90;;;;;;4943230;29;20234;-66
2022/01/20 11:22:56;;;;;;;7.10;2.40;;;7.90;99.90;;;;;;4954945;29;20586;-68
2022/01/20 11:25:26;;;;;;;7.22;2.35;;;8.00;99.90;;;;;;4955418;29;20234;-68
2022/01/20 11:28:04;;;;;;;8.63;2.80;;;8.30;99.90;;;;;;4955401;29;20690;-68
2022/01/20 11:30:33;;;;;;;5.50;2.03;;;8.20;99.90;;;;;;4955117;29;20321;-67
2022/01/20 11:33:04;;;;;;;3.35;1.45;;;7.80;99.90;;;;;;4954735;29;20276;-67
2022/01/20 11:35:43;;;;;;;7.47;2.25;;;7.60;99.90;;;;;;4955283;29;20661;-68
2022/01/20 11:38:14;;;;;;;4.20;1.45;;;7.70;99.90;;;;;;4955140;29;20285;-68
2022/01/20 11:40:54;;;;;;;6.75;1.98;;;8.00;99.90;;;;;;4937881;29;20758;-66
2022/01/20 11:43:33;;;;;;;3.45;1.67;;;8.00;99.90;;;;;;4943249;29;20255;-66
2022/01/20 11:46:11;;;;;;;3.60;1.42;;;7.70;99.90;;;;;;4955106;29;20214;-67
2022/01/20 11:48:55;;;;;;;6.85;2.30;;;7.40;99.90;;;;;;4954944;29;20653;-68
2022/01/20 11:51:26;;;;;;;7.30;2.30;;;7.20;99.90;;;;;;4954807;29;20223;-68
2022/01/20 11:54:18;;;;;;;5.72;2.30;;;7.10;99.90;;;;;;4954695;29;20208;-66
2022/01/20 11:56:46;;;;;;;7.00;1.70;;;7.10;99.90;;;;;;4954710;29;20306;-67
2022/01/20 11:59:16;;;;;;;4.28;1.88;;;7.00;99.90;;;;;;4954622;29;20249;-68
2022/01/20 12:01:49;;;;;;;4.88;1.42;;;7.50;99.90;;;;;;4954371;29;20238;-68
2022/01/20 12:04:18;;;;;;;6.95;2.00;;;8.20;99.90;;;;;;4954550;29;20695;-67
2022/01/20 12:06:47;;;;;;;4.32;1.40;;;8.10;99.90;;;;;;4954607;29;20211;-69
2022/01/20 12:09:29;;;;;;;9.18;2.30;;;8.00;99.90;;;;;;4950684;29;20237;-69
2022/01/20 12:11:57;;;;;;;3.30;1.95;;;7.50;99.90;;;;;;4931452;29;20227;-66
2022/01/20 12:14:36;;;;;;;5.70;1.50;;;7.20;99.90;;;;;;4954550;29;20663;-67
2022/01/20 12:17:07;;;;;;;6.38;2.05;;;6.90;99.90;;;;;;4954557;29;20277;-66
2022/01/20 12:19:36;;;;;;;6.40;1.55;;;6.80;99.90;;;;;;4954804;29;20238;-65
2022/01/20 12:22:10;;;;;;;7.25;2.45;;;6.60;99.90;;;;;;4954017;29;20302;-67
2022/01/20 12:24:38;;;;;;;9.38;2.17;;;6.50;99.90;;;;;;4954809;29;20238;-67
2022/01/20 12:27:16;;;;;;;7.80;1.63;;;6.30;99.90;;;;;;4954335;29;20740;-67
2022/01/20 12:29:44;;;;;;;6.60;2.05;;;6.20;99.90;;;;;;4954220;29;20219;-67
2022/01/20 12:32:16;;;;;;;4.70;2.17;;;6.00;99.90;;;;;;4953549;29;20289;-66
2022/01/20 12:34:45;;;;;;;18.40;6.05;;;5.90;99.90;;;;;;4954276;29;20593;-68
2022/01/20 12:37:14;;;;;;;17.30;8.07;;;5.70;99.90;;;;;;4954150;29;20231;-68
2022/01/20 12:39:42;;;;;;;3.85;1.60;;;5.40;99.90;;;;;;4943782;29;20203;-68
2022/01/20 12:42:11;;;;;;;6.55;2.03;;;5.30;99.90;;;;;;4946632;29;20614;-68
2022/01/20 12:44:47;;;;;;;5.80;2.03;;;5.20;99.90;;;;;;4953282;29;20736;-68
2022/01/20 12:47:16;;;;;;;6.15;1.75;;;4.90;99.90;;;;;;4953965;29;20299;-68
2022/01/20 12:49:44;;;;;;;4.38;2.25;;;4.30;99.90;;;;;;4942019;29;20238;-67
2022/01/20 12:52:16;;;;;;;4.43;1.90;;;3.80;99.90;;;;;;4953623;29;20712;-67
2022/01/20 12:54:44;;;;;;;6.25;2.30;;;3.60;99.90;;;;;;4953753;29;20308;-68
2022/01/20 12:57:13;;;;;;;3.05;2.63;;;3.50;99.90;;;;;;4953720;29;20326;-67
2022/01/20 12:59:43;;;;;;;5.47;2.25;;;3.60;99.90;;;;;;4953844;29;20561;-68
2022/01/20 13:02:15;;;;;;;6.47;1.95;;;3.70;99.90;;;;;;4953144;29;20321;-67
2022/01/20 13:04:43;;;;;;;7.25;2.25;;;3.80;99.90;;;;;;4953755;29;20207;-68
2022/01/20 13:07:15;;;;;;;4.78;2.15;;;3.90;99.90;;;;;;4953362;29;20466;-68
2022/01/20 13:09:48;;;;;;;5.05;1.90;;;4.10;99.90;;;;;;4938402;29;20217;-68
2022/01/20 13:12:18;;;;;;;6.15;1.80;;;4.10;99.90;;;;;;4941799;29;20303;-66
2022/01/20 13:14:47;;;;;;;11.10;2.50;;;4.10;99.90;;;;;;4953628;29;20238;-67
2022/01/20 13:17:22;;;;;;;7.70;2.40;;;4.20;99.90;;;;;;4953167;29;20280;-68
2022/01/20 13:19:54;;;;;;;9.23;2.72;;;4.20;99.90;;;;;;4953544;29;20211;-68
2022/01/20 13:22:27;;;;;;;6.55;2.33;;;4.20;99.90;;;;;;4952353;28;20321;-68
2022/01/20 13:25:05;;;;;;;5.18;1.75;;;4.20;99.90;;;;;;4953536;29;20294;-67
2022/01/20 13:27:33;;;;;;;5.22;2.60;;;4.20;99.90;;;;;;4953067;29;20688;-67
2022/01/20 13:30:01;;;;;;;7.38;2.67;;;4.20;99.90;;;;;;4953204;29;20215;-68
2022/01/20 13:32:29;;;;;;;6.43;2.03;;;4.10;99.90;;;;;;4952844;29;20310;-67
2022/01/20 13:34:58;;;;;;;5.90;2.03;;;4.10;99.90;;;;;;4953277;29;20243;-68
2022/01/20 13:37:27;;;;;;;7.65;2.40;;;4.20;99.90;;;;;;4953037;29;20207;-67
2022/01/20 13:39:58;;;;;;;7.35;2.33;;;4.20;99.90;;;;;;4940685;29;20246;-68
2022/01/20 13:42:37;;;;;;;7.68;1.70;;;4.30;99.90;;;;;;4939347;29;20227;-68
2022/01/20 13:45:14;;;;;;;9.65;2.22;;;4.30;99.90;;;;;;4941810;29;20263;-67
2022/01/20 13:47:50;;;;;;;9.23;2.53;;;4.30;99.90;;;;;;4952166;29;20241;-69
2022/01/20 13:50:21;;;;;;;8.40;2.63;;;4.20;99.90;;;;;;4941706;29;20215;-69
2022/01/20 13:52:51;;;;;;;6.53;2.33;;;4.20;99.90;;;;;;4952994;29;20306;-69
2022/01/20 13:55:26;;;;;;;10.18;3.38;;;4.20;99.90;;;;;;4953101;29;20634;-67